createdAt,value
2019-03-03T05:04:07.142Z,99.456787
2019-03-03T05:07:35.105Z,99.456787
2019-03-03T05:11:02.991Z,99.560547
2019-03-03T05:14:30.911Z,99.456787
2019-03-03T05:17:58.931Z,99.664307
2019-03-03T05:21:27.802Z,99.414062
2019-03-03T05:24:55.717Z,99.310303
2019-03-03T05:28:23.614Z,99.206543
2019-03-03T05:31:51.499Z,99.206543
2019-03-03T05:35:19.401Z,98.999023
2019-03-03T05:38:47.411Z,98.999023
2019-03-03T05:42:15.290Z,99.060059
2019-03-03T05:45:43.186Z,99.060059
2019-03-03T05:49:11.074Z,99.157715
2019-03-03T05:52:38.978Z,99.157715
2019-03-03T05:56:06.880Z,99.261475
2019-03-03T05:59:34.832Z,99.468994
2019-03-03T06:03:03.706Z,99.572754
2019-03-03T06:06:31.625Z,99.780273
2019-03-03T06:09:59.531Z,99.938965
2019-03-03T06:13:27.422Z,99.993896
2019-03-03T06:16:55.328Z,99.993896
2019-03-03T06:20:24.226Z,99.993896
2019-03-03T06:23:53.101Z,99.993896
2019-03-03T06:27:21.002Z,99.993896
2019-03-03T06:30:48.917Z,99.993896
2019-03-03T06:34:16.793Z,99.993896
2019-03-03T06:37:45.567Z,99.993896
2019-03-03T06:41:13.480Z,99.993896
2019-03-03T06:44:41.367Z,99.993896
2019-03-03T06:48:09.968Z,99.993896
2019-03-03T06:51:40.726Z,99.993896
2019-03-03T06:55:15.254Z,99.993896
2019-03-03T06:58:43.360Z,99.993896
2019-03-03T07:02:11.262Z,99.993896
2019-03-03T07:05:39.172Z,99.993896
2019-03-03T07:09:07.048Z,99.993896
2019-03-03T07:12:34.965Z,99.993896
2019-03-03T07:16:02.859Z,99.993896
2019-03-03T07:19:30.740Z,99.993896
2019-03-03T07:22:58.653Z,99.993896
2019-03-03T07:26:26.546Z,99.993896
2019-03-03T07:29:54.432Z,99.993896
2019-03-03T07:33:22.330Z,99.993896
2019-03-03T07:36:50.226Z,99.993896
2019-03-03T07:40:18.125Z,99.993896
2019-03-03T07:43:46.034Z,99.993896
2019-03-03T07:47:13.928Z,99.993896
2019-03-03T07:50:41.825Z,99.993896
2019-03-03T07:54:09.712Z,99.993896
2019-03-03T07:57:37.614Z,99.993896
2019-03-03T08:01:05.547Z,99.993896
2019-03-03T08:04:33.431Z,99.993896
2019-03-03T08:08:02.328Z,99.993896
2019-03-03T08:11:30.230Z,99.993896
2019-03-03T08:14:58.110Z,99.993896
2019-03-03T08:18:26.009Z,99.993896
2019-03-03T08:21:53.912Z,99.993896
2019-03-03T08:25:22.821Z,99.993896
2019-03-03T08:28:50.705Z,99.993896
2019-03-03T08:32:18.601Z,99.993896
2019-03-03T08:35:47.504Z,99.993896
2019-03-03T08:39:15.389Z,99.993896
2019-03-03T08:42:43.297Z,99.993896
2019-03-03T08:46:11.202Z,99.993896
2019-03-03T08:49:39.084Z,99.993896
2019-03-03T08:53:07.984Z,99.993896
2019-03-03T08:56:35.884Z,99.993896
2019-03-03T09:00:03.777Z,99.993896
2019-03-03T09:03:31.686Z,99.993896
2019-03-03T09:06:59.602Z,99.993896
2019-03-03T09:10:27.483Z,99.993896
2019-03-03T09:13:55.398Z,99.993896
2019-03-03T09:17:23.308Z,99.993896
2019-03-03T09:20:51.648Z,99.993896
2019-03-03T09:24:20.502Z,99.993896
2019-03-03T09:27:48.615Z,99.993896
2019-03-03T09:31:16.529Z,99.993896
2019-03-03T09:34:44.444Z,99.993896
2019-03-03T09:38:12.361Z,99.993896
2019-03-03T09:41:40.245Z,99.993896
2019-03-03T09:45:08.145Z,99.993896
2019-03-03T09:48:36.043Z,99.993896
2019-03-03T09:52:03.928Z,99.993896
2019-03-03T09:55:31.903Z,99.993896
2019-03-03T09:58:59.817Z,99.993896
2019-03-03T10:02:27.701Z,99.993896
2019-03-03T10:05:55.613Z,99.993896
2019-03-03T10:09:23.610Z,99.993896
2019-03-03T10:12:51.484Z,99.993896
2019-03-03T10:16:19.386Z,99.993896
2019-03-03T10:19:47.292Z,99.993896
2019-03-03T10:23:16.164Z,99.993896
2019-03-03T10:26:44.068Z,99.993896
2019-03-03T10:30:12.402Z,99.993896
2019-03-03T10:33:41.184Z,99.993896
2019-03-03T10:37:09.080Z,99.993896
2019-03-03T10:40:37.993Z,99.993896
2019-03-03T10:44:05.899Z,99.993896
2019-03-03T10:47:33.881Z,99.993896
2019-03-03T10:51:01.855Z,99.993896
2019-03-03T10:54:30.756Z,99.993896
2019-03-03T10:57:58.666Z,99.993896
2019-03-03T11:01:26.600Z,99.993896
2019-03-03T11:04:54.488Z,99.993896
2019-03-03T11:08:22.437Z,99.993896
2019-03-03T11:11:50.395Z,99.993896
2019-03-03T11:15:19.416Z,99.993896
2019-03-03T11:18:55.734Z,99.993896
2019-03-03T11:22:20.205Z,99.993896
2019-03-03T11:25:48.103Z,99.993896
2019-03-03T11:29:16.015Z,99.993896
2019-03-03T11:32:43.931Z,99.993896
2019-03-03T11:36:11.844Z,99.993896
2019-03-03T11:39:39.780Z,99.993896
2019-03-03T11:43:07.710Z,99.993896
2019-03-03T11:46:35.653Z,99.993896
2019-03-03T11:50:03.520Z,99.993896
2019-03-03T11:53:31.485Z,99.993896
2019-03-03T11:56:59.401Z,99.993896
2019-03-03T12:00:27.336Z,99.993896
2019-03-03T12:03:55.242Z,99.993896
2019-03-03T12:07:23.114Z,99.993896
2019-03-03T12:10:51.017Z,99.993896
2019-03-03T12:14:18.926Z,99.993896
2019-03-03T12:17:46.815Z,99.993896
2019-03-03T12:21:14.721Z,99.993896
2019-03-03T12:24:42.630Z,99.438477
2019-03-03T12:28:10.526Z,98.779297
2019-03-03T12:31:38.431Z,98.162842
2019-03-03T12:35:06.340Z,97.857666
2019-03-03T12:38:34.237Z,97.55249
2019-03-03T12:42:03.620Z,97.650146
2019-03-03T12:45:31.036Z,97.650146
2019-03-03T12:48:58.931Z,97.241211
2019-03-03T12:52:26.817Z,97.393799
2019-03-03T12:55:54.735Z,97.186279
2019-03-03T12:59:23.648Z,96.728516
2019-03-03T13:02:51.542Z,96.728516
2019-03-03T13:06:24.217Z,96.832275
2019-03-03T13:09:50.340Z,96.21582
2019-03-03T13:13:18.230Z,96.118164
2019-03-03T13:16:46.140Z,95.556641
2019-03-03T13:20:14.046Z,95.050049
2019-03-03T13:23:41.933Z,95.10498
2019-03-03T13:27:09.843Z,94.433594
2019-03-03T13:30:37.749Z,94.287109
2019-03-03T13:34:05.672Z,93.615723
2019-03-03T13:37:33.583Z,93.469238
2019-03-03T13:41:01.663Z,93.469238
2019-03-03T13:44:29.563Z,92.138672
2019-03-03T13:47:57.482Z,91.522217
2019-03-03T13:51:25.510Z,91.009521
2019-03-03T13:54:54.298Z,90.600586
2019-03-03T13:58:22.202Z,87.939453
2019-03-03T14:01:50.108Z,88.183594
2019-03-03T14:05:17.991Z,88.079834
2019-03-03T14:08:45.900Z,87.365723
2019-03-03T14:12:13.798Z,87.774658
2019-03-03T14:15:41.683Z,87.774658
2019-03-03T14:19:09.592Z,88.287354
2019-03-03T14:22:38.494Z,87.774658
2019-03-03T14:26:07.390Z,88.183594
2019-03-03T14:29:36.292Z,88.592529
2019-03-03T14:33:04.210Z,88.391113
2019-03-03T14:36:32.096Z,86.645508
2019-03-03T14:40:00.004Z,86.035156
2019-03-03T14:43:27.912Z,86.340332
2019-03-03T14:46:55.822Z,86.480713
2019-03-03T14:50:23.745Z,86.071777
2019-03-03T14:53:51.721Z,86.480713
2019-03-03T14:57:19.597Z,86.480713
2019-03-03T15:00:48.573Z,85.357666
2019-03-03T15:04:16.526Z,85.394287
2019-03-03T15:07:45.780Z,85.296631
2019-03-03T15:11:13.545Z,85.601807
2019-03-03T15:14:41.459Z,84.881592
2019-03-03T15:18:09.391Z,85.296631
2019-03-03T15:21:39.481Z,86.114502
2019-03-03T15:25:07.473Z,84.985352
2019-03-03T15:28:35.416Z,86.010742
2019-03-03T15:32:03.338Z,86.218262
2019-03-03T15:35:31.255Z,85.949707
2019-03-03T15:39:00.152Z,86.254883
2019-03-03T15:42:28.092Z,86.462402
2019-03-03T15:45:56.015Z,87.384033
2019-03-03T15:49:23.941Z,87.695312
2019-03-03T15:52:52.874Z,88.244629
2019-03-03T15:56:20.857Z,89.581299
2019-03-03T15:59:48.860Z,90.606689
2019-03-03T16:03:16.804Z,91.119385
2019-03-03T16:06:45.873Z,92.803955
2019-03-03T16:10:13.803Z,93.829346
2019-03-03T16:13:41.706Z,95.10498
2019-03-03T16:17:09.636Z,95.928955
2019-03-03T16:20:37.577Z,96.54541
2019-03-03T16:24:05.481Z,97.20459
2019-03-03T16:27:34.392Z,97.619629
2019-03-03T16:31:02.437Z,98.132324
2019-03-03T16:34:30.328Z,98.4375
2019-03-03T16:37:58.300Z,98.999023
2019-03-03T16:41:26.235Z,99.206543
2019-03-03T16:44:54.164Z,99.407959
2019-03-03T16:48:22.099Z,99.615479
2019-03-03T16:51:50.037Z,99.719238
2019-03-03T16:55:17.925Z,99.926758
2019-03-03T16:58:45.875Z,99.993896
2019-03-03T17:02:13.757Z,99.993896
2019-03-03T17:05:41.839Z,99.993896
2019-03-03T17:09:09.719Z,99.993896
2019-03-03T17:12:38.615Z,99.993896
2019-03-03T17:16:06.518Z,99.993896
2019-03-03T17:19:34.396Z,99.993896
2019-03-03T17:23:02.298Z,99.993896
2019-03-03T17:26:30.189Z,99.993896
2019-03-03T17:29:58.077Z,99.993896
2019-03-03T17:33:25.976Z,99.993896
2019-03-03T17:36:53.876Z,99.993896
2019-03-03T17:40:21.758Z,99.993896
2019-03-03T17:43:51.643Z,99.993896
2019-03-03T17:47:19.532Z,99.993896
2019-03-03T17:50:47.421Z,99.993896
2019-03-03T17:54:15.334Z,99.993896
2019-03-03T17:57:43.244Z,99.993896
2019-03-03T18:01:11.130Z,99.993896
2019-03-03T18:04:39.011Z,99.993896
2019-03-03T18:08:06.911Z,99.993896
2019-03-03T18:11:34.808Z,99.993896
2019-03-03T18:15:02.683Z,99.993896
2019-03-03T18:18:30.598Z,99.993896
2019-03-03T18:21:59.496Z,99.993896
2019-03-03T18:25:27.378Z,99.993896
2019-03-03T18:28:55.275Z,99.993896
2019-03-03T18:32:23.179Z,99.993896
2019-03-03T18:35:51.069Z,99.993896
2019-03-03T18:39:18.958Z,99.993896
2019-03-03T18:42:46.855Z,99.993896
2019-03-03T18:46:14.755Z,99.993896
2019-03-03T18:49:42.640Z,99.993896
2019-03-03T18:53:10.547Z,99.993896
2019-03-03T18:56:38.725Z,99.993896
2019-03-03T19:00:06.607Z,99.993896
2019-03-03T19:03:35.495Z,99.993896
2019-03-03T19:07:03.419Z,99.993896
2019-03-03T19:10:31.311Z,99.993896
2019-03-03T19:13:59.187Z,99.993896
2019-03-03T19:17:27.088Z,99.993896
2019-03-03T19:20:55.432Z,99.993896
2019-03-03T19:24:23.355Z,99.993896
2019-03-03T19:27:51.353Z,99.993896
2019-03-03T19:31:20.860Z,99.993896
2019-03-03T19:34:48.156Z,99.993896
2019-03-03T19:38:16.055Z,99.993896
2019-03-03T19:41:43.961Z,99.993896
2019-03-03T19:45:11.852Z,99.993896
2019-03-03T19:48:39.735Z,99.993896
2019-03-03T19:52:07.652Z,99.993896
2019-03-03T19:55:35.565Z,99.993896
2019-03-03T19:59:03.448Z,99.993896
2019-03-03T20:02:32.344Z,99.993896
2019-03-03T20:06:00.248Z,99.993896
2019-03-03T20:09:28.128Z,99.993896
2019-03-03T20:12:56.021Z,99.993896
2019-03-03T20:16:23.934Z,99.993896
2019-03-03T20:19:51.823Z,99.993896
2019-03-03T20:23:19.718Z,99.993896
2019-03-03T20:26:47.622Z,99.993896
2019-03-03T20:30:15.525Z,99.993896
2019-03-03T20:33:43.454Z,99.993896
2019-03-03T20:37:11.365Z,99.993896
2019-03-03T20:40:40.265Z,99.993896
2019-03-03T20:44:08.162Z,99.993896
2019-03-03T20:47:36.066Z,99.993896
2019-03-03T20:51:03.966Z,99.993896
2019-03-03T20:54:31.870Z,99.993896
2019-03-03T20:57:59.765Z,99.993896
2019-03-03T21:01:27.695Z,99.993896
2019-03-03T21:04:55.538Z,99.993896
2019-03-03T21:08:23.442Z,99.993896
2019-03-03T21:11:52.331Z,99.993896
2019-03-03T21:15:20.204Z,99.993896
2019-03-03T21:18:48.112Z,99.993896
2019-03-03T21:22:16.019Z,99.993896
2019-03-03T21:25:43.916Z,99.993896
2019-03-03T21:29:12.816Z,99.993896
2019-03-03T21:32:40.730Z,99.993896
2019-03-03T21:36:08.642Z,99.993896
2019-03-03T21:39:36.529Z,99.993896
2019-03-03T21:43:04.424Z,99.993896
2019-03-03T21:46:32.337Z,99.993896
2019-03-03T21:50:01.214Z,99.993896
2019-03-03T21:53:30.110Z,99.993896
2019-03-03T21:56:58.021Z,99.993896
2019-03-03T22:00:26.014Z,99.993896
2019-03-03T22:03:53.901Z,99.993896
2019-03-03T22:07:21.803Z,99.993896
2019-03-03T22:10:49.700Z,99.993896
2019-03-03T22:14:17.584Z,99.993896
2019-03-03T22:17:45.478Z,99.993896
2019-03-03T22:21:13.388Z,99.993896
2019-03-03T22:24:41.272Z,99.993896
2019-03-03T22:28:10.163Z,99.993896
2019-03-03T22:31:38.073Z,99.993896
2019-03-03T22:35:05.956Z,99.993896
2019-03-03T22:38:34.850Z,99.993896
2019-03-03T22:42:02.754Z,99.993896
2019-03-03T22:45:30.651Z,99.993896
2019-03-03T22:48:58.535Z,99.993896
2019-03-03T22:52:26.437Z,99.993896
2019-03-03T22:55:54.412Z,99.993896
2019-03-03T22:59:22.288Z,99.993896
